CheckWX is a tool to help pilots better visualize weather data.  It is not intended as a substitute for an official pre-flight weather briefing.

01:32:41 UTC

KCEW METAR
Bob Sikes Airport
Crestview, Florida, USA
Current

40 mins ago

KCEW 190053Z AUTO 17004KT 10SM SCT017 BKN022 BKN050 27/24 A3000 RMK AO2 LTG DSNT SE SLP156 T02720239
Observed
Aug-19 @ 00:53 UTC
Wind
  • 170° at 4 KTS
Visibility
10 SM
Flight Rules
MVFR
Cloud Levels
  • Scattered at 1,700' AGL
  • Broken at 2,200' AGL
  • Broken at 5,000' AGL
Temperature
27°C / 81°F
Dewpoint
24°C / 75°F
Heat Index
31°C / 87°F
Humidity
84%
Altimeter
30" Hg
Pressure
1015.92 hPa
Previous

2 hours ago

KCEW 182353Z AUTO 21007KT 10SM FEW065 28/25 A2999 RMK AO2 LTG DSNT NE-SE RAE00 SLP153 P0000 60069 T02830250 10361 20256 53011
Observed
Aug-18 @ 23:53 UTC
Wind
  • 210° at 7 KTS
Visibility
10 SM
Flight Rules
VFR
Cloud Levels
  • Few at 6,500' AGL
Temperature
28°C / 82°F
Dewpoint
25°C / 77°F
Heat Index
32°C / 90°F
Humidity
84%
Altimeter
29.99" Hg
Pressure
1015.62 hPa
Current Rain
0.01"
Previous

3 hours ago

KCEW 182253Z AUTO 24007KT 7SM -RA SCT022 BKN047 BKN060 27/23 A2997 RMK AO2 WSHFT 2210 LTG DSNT E AND W RAB2155 SLP145 P0069 T02720233
Observed
Aug-18 @ 22:53 UTC
Wind
  • 240° at 7 KTS
Visibility
7 SM
Flight Rules
VFR
Conditions
Light Rain
Cloud Levels
  • Scattered at 2,200' AGL
  • Broken at 4,700' AGL
  • Broken at 6,000' AGL
Temperature
27°C / 81°F
Dewpoint
23°C / 73°F
Heat Index
30°C / 86°F
Humidity
79%
Altimeter
29.97" Hg
Pressure
1014.92 hPa
Current Rain
0.69"